Time;durP1;ratioP1;P1;durP2;ratioP2;P2;SDS_P1;SDS_P2;PMS_P1;PMS_P2;Temp;Humidity;BMP_temperature;BMP_pressure;BME280_temperature;BME280_humidity;BME280_pressure;Samples;Min_cycle;Max_cycle;Signal;HPM_P1;HPM_P2
2023/09/03 04:23:08;;;;;;;;;;;;;;;;;;;;;
2023/09/03 04:25:34;;;;;;;;;;;;;;;;;;6262452;23;19914;-96
2023/09/03 04:28:11;;;;;;;;;;;;;;;;;;;;;
2023/09/03 04:30:38;;;;;;;;;;;;;;;;;;6258192;23;19931;-96
2023/09/03 04:33:17;;;;;;;;;;;;;;;;;;;;;
2023/09/03 04:35:58;;;;;;;;;;;;;;;;;;6260164;23;19919;-96
2023/09/03 04:38:34;;;;;;;;;;;;;;;;;;;;;
2023/09/03 04:41:06;;;;;;;;;;;;;;;;;;6262805;23;19903;-96
2023/09/03 04:43:50;;;;;;;;;;;;;;;;;;6260678;23;19911;-96
2023/09/03 04:46:26;;;;;;;;;;;;;;;;;;6261692;23;20302;-96
2023/09/03 05:15:12;;;;;;;;;;;;;;;;;;6280958;22;19927;-96
2023/09/03 05:17:46;;;;;;;;;;;;;;;;;;6264105;22;20147;-95
2023/09/03 05:20:32;;;;;;;;;;;;;;;;;;6290192;22;19904;-95
2023/09/03 06:31:00;;;;;;;;;;;;;;;;;;6286353;22;20316;-95
2023/09/03 06:37:07;;;;;;;;;;;;;;;;;;;;;
2023/09/03 06:38:58;;;;;;;;;;;;;;;;;;6261664;22;20309;-95
2023/09/03 06:44:21;;;;;;;;;;;;;;;;;;;;;
2023/09/03 07:21:01;;;;;;;;;;;;;;;;;;6301294;22;19917;-96
2023/09/03 07:31:47;;;;;;;;;;;;;;;;;;6283121;22;19942;-96
2023/09/03 07:34:19;;;;;;;;;;;;;;;;;;6255365;22;20321;-95
2023/09/03 07:36:48;;;;;;;;;;;;;;;;;;6253157;22;19935;-96
2023/09/03 07:39:14;;;;;;;;;;;;;;;;;;6258598;22;20329;-95
2023/09/03 07:41:40;;;;;;;;;;;;;;;;;;6253724;22;19978;-95
2023/09/03 07:44:07;;;;;;;;;;;;;;;;;;6255059;22;19930;-94
2023/09/03 07:46:33;;;;;;;;;;;;;;;;;;6255385;22;19903;-95
2023/09/03 07:54:16;;;;;;;;;;;;;;;;;;6249184;23;19919;-95
2023/09/03 07:56:45;;;;;;;;;;;;;;;;;;6247359;23;19900;-95
2023/09/03 07:59:23;;;;;;;;;;;;;;;;;;6248219;23;19943;-94
2023/09/03 08:01:49;;;;;;;;;;;;;;;;;;6249290;23;19907;-96
2023/09/03 08:04:15;;;;;;;;;;;;;;;;;;6248317;23;19904;-95
2023/09/03 08:06:44;;;;;;;;;;;;;;;;;;6247544;23;19904;-96
2023/09/03 08:09:16;;;;;;;;;;;;;;;;;;6247633;23;19991;-96
2023/09/03 08:11:43;;;;;;;;;;;;;;;;;;6247850;23;19956;-96
2023/09/03 11:29:13;;;;;;;;;;;;;;;;;;6278093;22;19980;-95
2023/09/03 11:44:47;;;;;;;;;;;;;;;;;;6249264;23;19920;-94
2023/09/03 11:53:00;;;;;;;;;;;;;;;;;;6242460;23;19903;-93
2023/09/03 11:55:26;;;;;;;;;;;;;;;;;;6221445;23;20342;-93
2023/09/03 11:57:55;;;;;;;;;;;;;;;;;;6221108;23;19904;-94
2023/09/03 12:00:21;;;;;;;;;;;;;;;;;;6221397;23;19904;-94
2023/09/03 12:02:50;;;;;;;;;;;;;;;;;;6222547;23;20343;-94
2023/09/03 12:05:29;;;;;;;;;;;;;;;;;;;;;
2023/09/03 12:07:55;;;;;;;;;;;;;;;;;;6254798;23;19954;-94
2023/09/03 12:10:22;;;;;;;;;;;;;;;;;;6235187;23;20673;-93
2023/09/03 12:13:01;;;;;;;;;;;;;;;;;;;;;
2023/09/03 12:15:30;;;;;;;;;;;;;;;;;;6250313;23;19974;-96
2023/09/03 20:07:59;;;;;;;;;;;;;;;;;;;;;
2023/09/03 20:10:39;;;;;;;;;;;;;;;;;;;;;
2023/09/03 20:18:49;;;;;;;;;;;;;;;;;;6292586;22;19899;-94
